sensor_id;sensor_type;location;lat;lon;timestamp;pressure;altitude;pressure_sealevel;temperature;humidity
78590;BME280;67888;50.228;7.828;2024-03-25T00:01:25;98319.78;;;6.66;100.00
78590;BME280;67888;50.228;7.828;2024-03-25T00:06:25;98320.03;;;6.60;100.00
78590;BME280;67888;50.228;7.828;2024-03-25T00:11:26;98326.31;;;6.74;100.00
78590;BME280;67888;50.228;7.828;2024-03-25T00:16:26;98320.84;;;6.70;100.00
78590;BME280;67888;50.228;7.828;2024-03-25T00:21:27;98323.97;;;6.42;100.00
78590;BME280;67888;50.228;7.828;2024-03-25T00:26:27;98316.13;;;6.47;100.00
78590;BME280;67888;50.228;7.828;2024-03-25T00:31:28;98325.25;;;6.24;100.00
78590;BME280;67888;50.228;7.828;2024-03-25T00:36:28;98325.00;;;6.41;100.00
78590;BME280;67888;50.228;7.828;2024-03-25T00:41:29;98330.78;;;6.43;100.00
78590;BME280;67888;50.228;7.828;2024-03-25T00:46:29;98324.47;;;6.29;100.00
78590;BME280;67888;50.228;7.828;2024-03-25T00:51:30;98327.13;;;6.44;100.00
78590;BME280;67888;50.228;7.828;2024-03-25T00:56:31;98331.53;;;6.28;100.00
78590;BME280;67888;50.228;7.828;2024-03-25T01:01:32;98324.50;;;6.39;100.00
78590;BME280;67888;50.228;7.828;2024-03-25T01:06:33;98323.44;;;6.35;100.00
78590;BME280;67888;50.228;7.828;2024-03-25T01:11:34;98315.06;;;6.28;100.00
78590;BME280;67888;50.228;7.828;2024-03-25T01:16:34;98321.34;;;6.47;100.00
78590;BME280;67888;50.228;7.828;2024-03-25T01:21:35;98317.69;;;6.18;100.00
78590;BME280;67888;50.228;7.828;2024-03-25T01:26:35;98325.78;;;6.46;100.00
78590;BME280;67888;50.228;7.828;2024-03-25T01:31:36;98319.78;;;6.31;100.00
78590;BME280;67888;50.228;7.828;2024-03-25T01:36:37;98323.44;;;6.50;100.00
78590;BME280;67888;50.228;7.828;2024-03-25T01:41:37;98319.03;;;6.45;100.00
78590;BME280;67888;50.228;7.828;2024-03-25T01:46:38;98322.41;;;6.51;100.00
78590;BME280;67888;50.228;7.828;2024-03-25T01:51:40;98320.28;;;6.18;100.00
78590;BME280;67888;50.228;7.828;2024-03-25T01:56:40;98324.47;;;6.24;100.00
78590;BME280;67888;50.228;7.828;2024-03-25T02:01:43;98324.75;;;6.32;100.00
78590;BME280;67888;50.228;7.828;2024-03-25T02:06:45;98310.59;;;6.03;100.00
78590;BME280;67888;50.228;7.828;2024-03-25T02:11:46;98314.78;;;6.04;100.00
78590;BME280;67888;50.228;7.828;2024-03-25T02:16:46;98317.88;;;5.96;100.00
78590;BME280;67888;50.228;7.828;2024-03-25T02:21:47;98318.84;;;5.69;100.00
78590;BME280;67888;50.228;7.828;2024-03-25T02:26:47;98317.03;;;5.80;100.00
78590;BME280;67888;50.228;7.828;2024-03-25T02:31:48;98321.31;;;6.11;100.00
78590;BME280;67888;50.228;7.828;2024-03-25T02:36:48;98320.53;;;6.06;100.00
78590;BME280;67888;50.228;7.828;2024-03-25T02:41:49;98317.41;;;6.14;100.00
78590;BME280;67888;50.228;7.828;2024-03-25T02:46:50;98316.63;;;6.19;100.00
78590;BME280;67888;50.228;7.828;2024-03-25T02:51:52;98323.94;;;6.27;100.00
78590;BME280;67888;50.228;7.828;2024-03-25T02:56:52;98330.44;;;6.09;100.00
78590;BME280;67888;50.228;7.828;2024-03-25T03:01:53;98331.75;;;6.01;100.00
78590;BME280;67888;50.228;7.828;2024-03-25T03:06:53;98334.63;;;6.05;100.00
78590;BME280;67888;50.228;7.828;2024-03-25T03:11:54;98339.34;;;6.18;100.00
78590;BME280;67888;50.228;7.828;2024-03-25T03:16:54;98346.41;;;6.07;100.00
78590;BME280;67888;50.228;7.828;2024-03-25T03:21:58;98342.22;;;6.11;100.00
78590;BME280;67888;50.228;7.828;2024-03-25T03:26:58;98340.13;;;6.14;100.00
78590;BME280;67888;50.228;7.828;2024-03-25T03:31:59;98327.09;;;6.19;100.00
78590;BME280;67888;50.228;7.828;2024-03-25T03:37:00;98330.72;;;6.13;100.00
78590;BME280;67888;50.228;7.828;2024-03-25T03:42:00;98332.16;;;5.83;100.00
78590;BME280;67888;50.228;7.828;2024-03-25T03:47:00;98332.16;;;5.68;100.00
78590;BME280;67888;50.228;7.828;2024-03-25T03:52:01;98322.47;;;5.63;100.00
78590;BME280;67888;50.228;7.828;2024-03-25T03:57:01;98331.47;;;5.35;100.00
78590;BME280;67888;50.228;7.828;2024-03-25T04:02:02;98335.34;;;5.28;100.00
78590;BME280;67888;50.228;7.828;2024-03-25T04:07:03;98333.19;;;5.20;100.00
78590;BME280;67888;50.228;7.828;2024-03-25T04:12:03;98328.25;;;5.18;100.00
78590;BME280;67888;50.228;7.828;2024-03-25T04:17:04;98329.38;;;4.90;100.00
78590;BME280;67888;50.228;7.828;2024-03-25T04:22:05;98330.53;;;4.67;100.00
78590;BME280;67888;50.228;7.828;2024-03-25T04:27:05;98326.22;;;4.51;100.00
78590;BME280;67888;50.228;7.828;2024-03-25T04:32:06;98319.75;;;4.54;100.00
78590;BME280;67888;50.228;7.828;2024-03-25T04:37:09;98332.25;;;4.25;100.00
78590;BME280;67888;50.228;7.828;2024-03-25T04:42:10;98326.69;;;3.89;100.00
78590;BME280;67888;50.228;7.828;2024-03-25T04:47:10;98324.78;;;3.80;100.00
78590;BME280;67888;50.228;7.828;2024-03-25T04:52:15;98338.81;;;3.79;100.00
78590;BME280;67888;50.228;7.828;2024-03-25T04:57:18;98354.44;;;4.06;100.00
78590;BME280;67888;50.228;7.828;2024-03-25T05:02:19;98348.38;;;3.73;100.00
78590;BME280;67888;50.228;7.828;2024-03-25T05:07:20;98339.03;;;3.99;100.00
78590;BME280;67888;50.228;7.828;2024-03-25T05:12:21;98340.31;;;3.75;100.00
78590;BME280;67888;50.228;7.828;2024-03-25T05:17:21;98340.00;;;3.49;100.00
78590;BME280;67888;50.228;7.828;2024-03-25T05:22:22;98345.78;;;3.51;100.00
78590;BME280;67888;50.228;7.828;2024-03-25T05:27:22;98353.50;;;2.58;100.00
78590;BME280;67888;50.228;7.828;2024-03-25T05:32:22;98349.25;;;2.68;100.00
78590;BME280;67888;50.228;7.828;2024-03-25T05:37:23;98359.34;;;2.65;100.00
78590;BME280;67888;50.228;7.828;2024-03-25T05:42:23;98348.50;;;2.51;100.00
78590;BME280;67888;50.228;7.828;2024-03-25T05:47:24;98357.53;;;1.92;100.00
78590;BME280;67888;50.228;7.828;2024-03-25T05:52:28;98356.88;;;2.41;100.00
78590;BME280;67888;50.228;7.828;2024-03-25T05:57:28;98365.44;;;2.25;100.00
78590;BME280;67888;50.228;7.828;2024-03-25T06:02:29;98361.41;;;2.63;100.00
78590;BME280;67888;50.228;7.828;2024-03-25T06:07:30;98365.69;;;3.07;100.00
78590;BME280;67888;50.228;7.828;2024-03-25T06:12:30;98357.56;;;3.20;100.00
78590;BME280;67888;50.228;7.828;2024-03-25T06:17:31;98359.63;;;3.18;100.00
78590;BME280;67888;50.228;7.828;2024-03-25T06:22:32;98356.88;;;3.47;100.00
78590;BME280;67888;50.228;7.828;2024-03-25T06:27:32;98360.50;;;3.68;100.00
78590;BME280;67888;50.228;7.828;2024-03-25T06:32:33;98363.78;;;3.58;100.00
78590;BME280;67888;50.228;7.828;2024-03-25T06:37:52;98359.84;;;3.99;100.00
78590;BME280;67888;50.228;7.828;2024-03-25T06:42:52;98357.03;;;4.06;100.00
78590;BME280;67888;50.228;7.828;2024-03-25T06:47:52;98365.25;;;4.46;100.00
78590;BME280;67888;50.228;7.828;2024-03-25T06:52:53;98372.16;;;4.62;100.00
78590;BME280;67888;50.228;7.828;2024-03-25T06:57:54;98382.31;;;4.96;100.00
78590;BME280;67888;50.228;7.828;2024-03-25T07:02:54;98389.28;;;5.17;100.00
78590;BME280;67888;50.228;7.828;2024-03-25T07:07:54;98390.13;;;5.28;100.00
78590;BME280;67888;50.228;7.828;2024-03-25T07:12:55;98390.50;;;5.52;100.00
78590;BME280;67888;50.228;7.828;2024-03-25T07:17:55;98386.34;;;5.51;100.00
78590;BME280;67888;50.228;7.828;2024-03-25T07:22:56;98378.72;;;5.91;100.00
78590;BME280;67888;50.228;7.828;2024-03-25T07:27:57;98376.00;;;6.69;100.00
78590;BME280;67888;50.228;7.828;2024-03-25T07:32:58;98379.09;;;6.51;100.00
78590;BME280;67888;50.228;7.828;2024-03-25T07:37:59;98384.00;;;6.06;100.00
78590;BME280;67888;50.228;7.828;2024-03-25T07:42:59;98379.06;;;6.20;100.00
78590;BME280;67888;50.228;7.828;2024-03-25T07:48:00;98387.22;;;7.20;100.00
78590;BME280;67888;50.228;7.828;2024-03-25T07:53:01;98364.97;;;7.33;100.00
78590;BME280;67888;50.228;7.828;2024-03-25T07:58:01;98371.16;;;7.57;100.00
78590;BME280;67888;50.228;7.828;2024-03-25T08:03:02;98368.63;;;7.16;100.00
78590;BME280;67888;50.228;7.828;2024-03-25T08:08:03;98366.44;;;8.18;100.00
78590;BME280;67888;50.228;7.828;2024-03-25T08:13:03;98370.00;;;8.38;100.00
78590;BME280;67888;50.228;7.828;2024-03-25T08:18:04;98377.25;;;8.51;100.00
78590;BME280;67888;50.228;7.828;2024-03-25T08:23:05;98378.31;;;9.18;100.00
78590;BME280;67888;50.228;7.828;2024-03-25T08:28:05;98377.88;;;9.82;100.00
78590;BME280;67888;50.228;7.828;2024-03-25T08:33:06;98390.22;;;9.82;100.00
78590;BME280;67888;50.228;7.828;2024-03-25T08:38:06;98379.34;;;8.88;100.00
78590;BME280;67888;50.228;7.828;2024-03-25T08:43:06;98381.84;;;9.56;100.00
78590;BME280;67888;50.228;7.828;2024-03-25T08:48:07;98387.38;;;9.54;100.00
78590;BME280;67888;50.228;7.828;2024-03-25T08:53:07;98381.47;;;9.15;100.00
78590;BME280;67888;50.228;7.828;2024-03-25T08:58:08;98375.38;;;9.48;100.00
78590;BME280;67888;50.228;7.828;2024-03-25T09:03:09;98384.38;;;9.13;100.00
78590;BME280;67888;50.228;7.828;2024-03-25T09:08:10;98380.44;;;9.63;100.00
78590;BME280;67888;50.228;7.828;2024-03-25T09:13:11;98366.81;;;10.04;100.00
78590;BME280;67888;50.228;7.828;2024-03-25T09:18:12;98356.81;;;10.06;100.00
78590;BME280;67888;50.228;7.828;2024-03-25T09:23:12;98354.06;;;9.97;100.00
78590;BME280;67888;50.228;7.828;2024-03-25T09:28:13;98346.00;;;9.89;100.00
78590;BME280;67888;50.228;7.828;2024-03-25T09:33:14;98344.88;;;10.14;100.00
78590;BME280;67888;50.228;7.828;2024-03-25T09:38:14;98334.66;;;10.12;100.00
78590;BME280;67888;50.228;7.828;2024-03-25T09:43:32;98332.69;;;10.41;100.00
78590;BME280;67888;50.228;7.828;2024-03-25T09:48:37;98323.56;;;10.85;100.00
78590;BME280;67888;50.228;7.828;2024-03-25T09:53:37;98319.69;;;10.64;100.00
78590;BME280;67888;50.228;7.828;2024-03-25T09:58:56;98303.69;;;10.47;100.00
78590;BME280;67888;50.228;7.828;2024-03-25T10:03:57;98299.94;;;11.26;100.00
78590;BME280;67888;50.228;7.828;2024-03-25T10:08:57;98291.25;;;11.12;100.00
78590;BME280;67888;50.228;7.828;2024-03-25T10:13:58;98299.53;;;12.10;100.00
78590;BME280;67888;50.228;7.828;2024-03-25T10:18:58;98293.41;;;11.24;100.00
78590;BME280;67888;50.228;7.828;2024-03-25T10:23:58;98284.66;;;12.28;100.00
78590;BME280;67888;50.228;7.828;2024-03-25T10:29:00;98279.41;;;11.64;100.00
78590;BME280;67888;50.228;7.828;2024-03-25T10:34:00;98282.50;;;11.94;100.00
78590;BME280;67888;50.228;7.828;2024-03-25T10:39:02;98280.41;;;10.54;100.00
78590;BME280;67888;50.228;7.828;2024-03-25T10:44:06;98281.47;;;11.40;100.00
78590;BME280;67888;50.228;7.828;2024-03-25T10:49:21;98274.47;;;11.22;100.00
78590;BME280;67888;50.228;7.828;2024-03-25T10:54:28;98266.56;;;12.97;100.00
78590;BME280;67888;50.228;7.828;2024-03-25T10:59:30;98259.28;;;12.40;100.00
78590;BME280;67888;50.228;7.828;2024-03-25T11:04:31;98237.97;;;12.59;100.00
78590;BME280;67888;50.228;7.828;2024-03-25T11:09:32;98231.09;;;12.05;98.65
78590;BME280;67888;50.228;7.828;2024-03-25T11:14:33;98221.81;;;12.07;97.11
78590;BME280;67888;50.228;7.828;2024-03-25T11:19:34;98214.44;;;13.19;90.39
78590;BME280;67888;50.228;7.828;2024-03-25T11:24:35;98207.78;;;12.82;87.08
78590;BME280;67888;50.228;7.828;2024-03-25T11:29:38;98195.56;;;12.55;88.69
78590;BME280;67888;50.228;7.828;2024-03-25T11:34:49;98192.19;;;12.33;94.13
78590;BME280;67888;50.228;7.828;2024-03-25T11:40:01;98180.56;;;12.65;83.98
78590;BME280;67888;50.228;7.828;2024-03-25T11:45:05;98174.31;;;13.00;92.36
78590;BME280;67888;50.228;7.828;2024-03-25T11:50:12;98171.59;;;12.83;84.81
78590;BME280;67888;50.228;7.828;2024-03-25T11:55:16;98166.94;;;13.28;85.38
78590;BME280;67888;50.228;7.828;2024-03-25T12:00:17;98148.44;;;13.80;95.97
78590;BME280;67888;50.228;7.828;2024-03-25T12:05:19;98141.44;;;14.56;84.39
78590;BME280;67888;50.228;7.828;2024-03-25T12:10:19;98130.09;;;14.47;73.31
78590;BME280;67888;50.228;7.828;2024-03-25T12:15:38;98113.44;;;14.38;74.94
78590;BME280;67888;50.228;7.828;2024-03-25T12:20:39;98113.88;;;14.49;79.88
78590;BME280;67888;50.228;7.828;2024-03-25T12:25:40;98090.78;;;14.58;72.49
78590;BME280;67888;50.228;7.828;2024-03-25T12:30:54;98091.06;;;13.63;65.31
78590;BME280;67888;50.228;7.828;2024-03-25T12:35:56;98083.91;;;14.27;79.37
78590;BME280;67888;50.228;7.828;2024-03-25T12:41:10;98071.22;;;15.42;69.79
78590;BME280;67888;50.228;7.828;2024-03-25T12:46:11;98060.34;;;14.73;65.45
78590;BME280;67888;50.228;7.828;2024-03-25T12:51:14;98054.94;;;14.40;57.16
78590;BME280;67888;50.228;7.828;2024-03-25T12:56:14;98046.56;;;14.29;53.95
78590;BME280;67888;50.228;7.828;2024-03-25T13:01:15;98041.97;;;15.51;64.48
78590;BME280;67888;50.228;7.828;2024-03-25T13:06:16;98033.06;;;16.49;68.56
78590;BME280;67888;50.228;7.828;2024-03-25T13:11:16;98028.59;;;16.90;60.67
78590;BME280;67888;50.228;7.828;2024-03-25T13:16:16;98015.06;;;17.07;57.46
78590;BME280;67888;50.228;7.828;2024-03-25T13:21:17;98005.72;;;16.61;56.44
78590;BME280;67888;50.228;7.828;2024-03-25T13:26:17;97995.03;;;16.45;52.40
78590;BME280;67888;50.228;7.828;2024-03-25T13:31:18;97998.28;;;17.62;55.21
78590;BME280;67888;50.228;7.828;2024-03-25T13:36:18;97985.28;;;18.04;54.28
78590;BME280;67888;50.228;7.828;2024-03-25T13:41:19;97977.47;;;17.64;52.53
78590;BME280;67888;50.228;7.828;2024-03-25T13:46:22;97964.53;;;17.50;52.55
78590;BME280;67888;50.228;7.828;2024-03-25T13:51:22;97966.28;;;26.38;32.74
78590;BME280;67888;50.228;7.828;2024-03-25T13:56:23;97956.38;;;26.28;33.59
78590;BME280;67888;50.228;7.828;2024-03-25T14:01:23;97955.97;;;25.85;29.53
78590;BME280;67888;50.228;7.828;2024-03-25T14:06:25;97964.22;;;26.53;31.03
78590;BME280;67888;50.228;7.828;2024-03-25T14:11:26;97957.16;;;29.75;24.02
78590;BME280;67888;50.228;7.828;2024-03-25T14:16:28;97942.59;;;29.69;24.75
78590;BME280;67888;50.228;7.828;2024-03-25T14:21:28;97946.91;;;29.14;25.73
78590;BME280;67888;50.228;7.828;2024-03-25T14:26:29;97934.97;;;29.47;24.68
78590;BME280;67888;50.228;7.828;2024-03-25T14:31:29;97926.16;;;29.43;23.97
78590;BME280;67888;50.228;7.828;2024-03-25T14:36:30;97907.66;;;29.87;22.95
78590;BME280;67888;50.228;7.828;2024-03-25T14:41:39;97908.09;;;32.08;22.16
78590;BME280;67888;50.228;7.828;2024-03-25T14:46:40;97900.31;;;27.84;24.29
78590;BME280;67888;50.228;7.828;2024-03-25T14:51:41;97889.94;;;28.02;24.60
78590;BME280;67888;50.228;7.828;2024-03-25T14:56:41;97877.25;;;25.63;27.15
78590;BME280;67888;50.228;7.828;2024-03-25T15:01:41;97862.31;;;29.06;26.31
78590;BME280;67888;50.228;7.828;2024-03-25T15:06:42;97856.66;;;27.12;25.97
78590;BME280;67888;50.228;7.828;2024-03-25T15:11:42;97857.00;;;26.23;27.12
78590;BME280;67888;50.228;7.828;2024-03-25T15:16:43;97850.81;;;26.29;25.96
78590;BME280;67888;50.228;7.828;2024-03-25T15:21:43;97845.16;;;28.41;25.92
78590;BME280;67888;50.228;7.828;2024-03-25T15:26:44;97838.91;;;28.44;23.80
78590;BME280;67888;50.228;7.828;2024-03-25T15:31:44;97831.09;;;28.85;23.12
78590;BME280;67888;50.228;7.828;2024-03-25T15:36:45;97806.44;;;24.48;26.72
78590;BME280;67888;50.228;7.828;2024-03-25T15:41:46;97822.81;;;28.17;25.08
78590;BME280;67888;50.228;7.828;2024-03-25T15:46:46;97823.16;;;27.56;24.05
78590;BME280;67888;50.228;7.828;2024-03-25T15:51:46;97812.06;;;25.75;25.58
78590;BME280;67888;50.228;7.828;2024-03-25T15:56:47;97801.41;;;25.20;26.42
78590;BME280;67888;50.228;7.828;2024-03-25T16:01:47;97800.59;;;25.71;24.75
78590;BME280;67888;50.228;7.828;2024-03-25T16:06:48;97796.16;;;25.47;24.39
78590;BME280;67888;50.228;7.828;2024-03-25T16:11:48;97788.13;;;26.49;24.54
78590;BME280;67888;50.228;7.828;2024-03-25T16:16:49;97784.03;;;23.85;25.99
78590;BME280;67888;50.228;7.828;2024-03-25T16:21:50;97794.03;;;23.74;25.96
78590;BME280;67888;50.228;7.828;2024-03-25T16:26:50;97775.50;;;22.24;28.28
78590;BME280;67888;50.228;7.828;2024-03-25T16:31:50;97772.97;;;23.41;26.62
78590;BME280;67888;50.228;7.828;2024-03-25T16:36:52;97772.72;;;24.99;25.24
78590;BME280;67888;50.228;7.828;2024-03-25T16:41:52;97773.59;;;21.55;27.91
78590;BME280;67888;50.228;7.828;2024-03-25T16:46:53;97776.44;;;22.77;26.57
78590;BME280;67888;50.228;7.828;2024-03-25T16:51:53;97765.34;;;20.79;27.27
78590;BME280;67888;50.228;7.828;2024-03-25T16:56:54;97759.28;;;21.26;27.98
78590;BME280;67888;50.228;7.828;2024-03-25T17:01:54;97765.50;;;19.10;29.56
78590;BME280;67888;50.228;7.828;2024-03-25T17:06:55;97758.25;;;15.87;34.03
78590;BME280;67888;50.228;7.828;2024-03-25T17:11:56;97752.78;;;14.83;37.16
78590;BME280;67888;50.228;7.828;2024-03-25T17:16:56;97748.16;;;14.14;40.05
78590;BME280;67888;50.228;7.828;2024-03-25T17:21:56;97747.53;;;13.54;42.56
78590;BME280;67888;50.228;7.828;2024-03-25T17:26:57;97740.41;;;13.46;43.79
78590;BME280;67888;50.228;7.828;2024-03-25T17:31:57;97728.41;;;12.90;46.56
78590;BME280;67888;50.228;7.828;2024-03-25T17:36:58;97723.16;;;12.17;49.28
78590;BME280;67888;50.228;7.828;2024-03-25T17:41:58;97719.59;;;11.70;54.11
78590;BME280;67888;50.228;7.828;2024-03-25T17:46:59;97714.50;;;11.74;55.04
78590;BME280;67888;50.228;7.828;2024-03-25T17:51:59;97705.53;;;10.30;63.35
78590;BME280;67888;50.228;7.828;2024-03-25T17:57:00;97703.19;;;10.29;68.98
78590;BME280;67888;50.228;7.828;2024-03-25T18:02:00;97691.22;;;10.45;73.11
78590;BME280;67888;50.228;7.828;2024-03-25T18:07:01;97696.28;;;9.52;100.00
78590;BME280;67888;50.228;7.828;2024-03-25T18:12:01;97684.91;;;8.93;100.00
78590;BME280;67888;50.228;7.828;2024-03-25T18:17:03;97674.41;;;8.93;100.00
78590;BME280;67888;50.228;7.828;2024-03-25T18:22:03;97680.53;;;8.48;100.00
78590;BME280;67888;50.228;7.828;2024-03-25T18:27:04;97666.13;;;7.99;100.00
78590;BME280;67888;50.228;7.828;2024-03-25T18:32:05;97656.91;;;7.69;100.00
78590;BME280;67888;50.228;7.828;2024-03-25T18:37:06;97653.31;;;7.09;100.00
78590;BME280;67888;50.228;7.828;2024-03-25T18:42:06;97660.03;;;6.96;100.00
78590;BME280;67888;50.228;7.828;2024-03-25T18:47:06;97651.78;;;6.60;100.00
78590;BME280;67888;50.228;7.828;2024-03-25T18:52:07;97655.41;;;6.64;100.00
78590;BME280;67888;50.228;7.828;2024-03-25T18:57:08;97663.59;;;6.81;100.00
78590;BME280;67888;50.228;7.828;2024-03-25T19:02:08;97659.66;;;6.07;100.00
78590;BME280;67888;50.228;7.828;2024-03-25T19:07:09;97656.44;;;6.16;100.00
78590;BME280;67888;50.228;7.828;2024-03-25T19:12:09;97650.72;;;6.08;100.00
78590;BME280;67888;50.228;7.828;2024-03-25T19:17:10;97647.72;;;5.96;100.00
78590;BME280;67888;50.228;7.828;2024-03-25T19:22:11;97639.16;;;5.08;100.00
78590;BME280;67888;50.228;7.828;2024-03-25T19:27:12;97633.22;;;5.80;100.00
78590;BME280;67888;50.228;7.828;2024-03-25T19:32:13;97633.69;;;5.09;100.00
78590;BME280;67888;50.228;7.828;2024-03-25T19:37:13;97632.81;;;4.75;100.00
78590;BME280;67888;50.228;7.828;2024-03-25T19:42:14;97616.19;;;5.54;100.00
78590;BME280;67888;50.228;7.828;2024-03-25T19:47:14;97612.69;;;4.85;100.00
78590;BME280;67888;50.228;7.828;2024-03-25T19:52:14;97607.13;;;4.48;100.00
78590;BME280;67888;50.228;7.828;2024-03-25T19:57:16;97595.84;;;4.67;100.00
78590;BME280;67888;50.228;7.828;2024-03-25T20:02:17;97604.81;;;4.36;100.00
78590;BME280;67888;50.228;7.828;2024-03-25T20:07:18;97600.72;;;4.10;100.00
78590;BME280;67888;50.228;7.828;2024-03-25T20:12:20;97593.78;;;4.64;100.00
78590;BME280;67888;50.228;7.828;2024-03-25T20:17:20;97595.47;;;4.25;100.00
78590;BME280;67888;50.228;7.828;2024-03-25T20:22:21;97584.34;;;3.99;100.00
78590;BME280;67888;50.228;7.828;2024-03-25T20:27:23;97577.72;;;4.37;100.00
78590;BME280;67888;50.228;7.828;2024-03-25T20:32:23;97579.28;;;4.38;100.00
78590;BME280;67888;50.228;7.828;2024-03-25T20:37:24;97571.88;;;3.81;100.00
78590;BME280;67888;50.228;7.828;2024-03-25T20:42:24;97573.16;;;4.04;100.00
78590;BME280;67888;50.228;7.828;2024-03-25T20:47:24;97568.53;;;3.65;100.00
78590;BME280;67888;50.228;7.828;2024-03-25T20:52:25;97566.44;;;3.67;100.00
78590;BME280;67888;50.228;7.828;2024-03-25T20:57:25;97561.63;;;4.30;100.00
78590;BME280;67888;50.228;7.828;2024-03-25T21:02:26;97554.38;;;4.07;100.00
78590;BME280;67888;50.228;7.828;2024-03-25T21:07:26;97543.53;;;3.79;100.00
78590;BME280;67888;50.228;7.828;2024-03-25T21:12:27;97538.81;;;3.91;100.00
78590;BME280;67888;50.228;7.828;2024-03-25T21:17:27;97542.97;;;3.97;100.00
78590;BME280;67888;50.228;7.828;2024-03-25T21:22:28;97531.34;;;3.65;100.00
78590;BME280;67888;50.228;7.828;2024-03-25T21:27:28;97519.31;;;3.84;100.00
78590;BME280;67888;50.228;7.828;2024-03-25T21:32:30;97519.13;;;3.09;100.00
78590;BME280;67888;50.228;7.828;2024-03-25T21:37:31;97510.56;;;3.24;100.00
78590;BME280;67888;50.228;7.828;2024-03-25T21:42:32;97513.91;;;3.55;100.00
78590;BME280;67888;50.228;7.828;2024-03-25T21:47:32;97512.25;;;4.00;100.00
78590;BME280;67888;50.228;7.828;2024-03-25T21:52:33;97512.59;;;3.63;100.00
78590;BME280;67888;50.228;7.828;2024-03-25T21:57:33;97514.75;;;4.30;100.00
78590;BME280;67888;50.228;7.828;2024-03-25T22:02:34;97505.06;;;3.66;100.00
78590;BME280;67888;50.228;7.828;2024-03-25T22:07:34;97496.00;;;3.33;100.00
78590;BME280;67888;50.228;7.828;2024-03-25T22:12:35;97499.28;;;3.84;100.00
78590;BME280;67888;50.228;7.828;2024-03-25T22:17:35;97492.00;;;3.86;100.00
78590;BME280;67888;50.228;7.828;2024-03-25T22:22:36;97500.91;;;3.45;100.00
78590;BME280;67888;50.228;7.828;2024-03-25T22:27:36;97492.06;;;3.61;100.00
78590;BME280;67888;50.228;7.828;2024-03-25T22:32:36;97486.84;;;3.56;100.00
78590;BME280;67888;50.228;7.828;2024-03-25T22:37:37;97485.84;;;3.52;100.00
78590;BME280;67888;50.228;7.828;2024-03-25T22:42:38;97478.59;;;3.29;100.00
78590;BME280;67888;50.228;7.828;2024-03-25T22:47:39;97474.41;;;3.17;100.00
78590;BME280;67888;50.228;7.828;2024-03-25T22:52:39;97466.09;;;3.05;100.00
78590;BME280;67888;50.228;7.828;2024-03-25T22:57:40;97465.81;;;3.42;100.00
78590;BME280;67888;50.228;7.828;2024-03-25T23:02:41;97458.47;;;3.70;100.00
78590;BME280;67888;50.228;7.828;2024-03-25T23:07:41;97447.91;;;3.20;100.00
78590;BME280;67888;50.228;7.828;2024-03-25T23:12:42;97453.09;;;3.41;100.00
78590;BME280;67888;50.228;7.828;2024-03-25T23:17:42;97442.22;;;3.03;100.00
78590;BME280;67888;50.228;7.828;2024-03-25T23:22:42;97430.00;;;3.29;100.00
78590;BME280;67888;50.228;7.828;2024-03-25T23:27:43;97435.44;;;3.22;100.00
78590;BME280;67888;50.228;7.828;2024-03-25T23:32:43;97432.75;;;3.68;100.00
78590;BME280;67888;50.228;7.828;2024-03-25T23:37:44;97419.25;;;3.56;100.00
78590;BME280;67888;50.228;7.828;2024-03-25T23:42:44;97419.81;;;3.43;100.00
78590;BME280;67888;50.228;7.828;2024-03-25T23:47:45;97416.97;;;4.92;100.00
78590;BME280;67888;50.228;7.828;2024-03-25T23:52:45;97411.69;;;4.97;100.00
78590;BME280;67888;50.228;7.828;2024-03-25T23:57:46;97415.44;;;5.44;100.00
